Time;durP1;ratioP1;P1;durP2;ratioP2;P2;SDS_P1;SDS_P2;PMS_P1;PMS_P2;Temp;Humidity;BMP_temperature;BMP_pressure;BME280_temperature;BME280_humidity;BME280_pressure;Samples;Min_cycle;Max_cycle;Signal;HPM_P1;HPM_P2
2021/10/10 00:01:11;;;;;;;1.70;1.60;;;;;;;18.66;76.46;101660.25;144992;802;6004;-78
2021/10/10 00:03:38;;;;;;;2.62;1.65;;;;;;;18.68;76.24;101669.03;144992;654;6004;-79
2021/10/10 00:06:04;;;;;;;3.20;2.10;;;;;;;18.66;75.68;101669.03;144992;618;6004;-78
2021/10/10 00:08:31;;;;;;;3.35;2.47;;;;;;;18.62;76.10;101661.94;144992;631;6004;-78
2021/10/10 00:10:57;;;;;;;4.45;2.33;;;;;;;18.53;76.35;101668.84;144992;650;6004;-78
2021/10/10 00:13:24;;;;;;;4.10;2.58;;;;;;;18.43;76.79;101675.75;144992;563;6004;-79
2021/10/10 00:15:50;;;;;;;4.00;2.67;;;;;;;18.41;76.81;101661.72;144992;623;6004;-79
2021/10/10 00:18:17;;;;;;;5.03;2.83;;;;;;;18.41;76.62;101670.47;144992;577;6004;-78
2021/10/10 00:20:43;;;;;;;4.22;2.62;;;;;;;18.44;76.37;101664.37;144992;562;6004;-79
2021/10/10 00:23:10;;;;;;;4.03;2.80;;;;;;;18.44;76.36;101672.25;144992;583;6004;-79
2021/10/10 00:25:36;;;;;;;4.45;2.67;;;;;;;18.48;76.74;101666.16;144992;643;6004;-79
2021/10/10 00:28:03;;;;;;;4.60;2.60;;;;;;;18.48;76.69;101661.81;144992;618;6004;-79
2021/10/10 00:30:29;;;;;;;4.10;2.90;;;;;;;18.47;76.79;101657.41;144992;606;6004;-79
2021/10/10 00:32:56;;;;;;;5.57;3.00;;;;;;;18.51;76.35;101662.69;144992;576;6004;-78
2021/10/10 00:35:22;;;;;;;5.53;3.50;;;;;;;18.53;76.35;101663.59;144992;643;6004;-77
2021/10/10 00:37:49;;;;;;;5.78;3.20;;;;;;;18.53;76.46;101666.22;144992;605;6004;-79
2021/10/10 00:40:15;;;;;;;5.50;3.42;;;;;;;18.53;76.56;101659.19;144992;580;6004;-80
2021/10/10 00:42:42;;;;;;;4.90;3.20;;;;;;;18.54;76.20;101665.38;144992;582;6004;-79
2021/10/10 00:45:09;;;;;;;4.43;3.15;;;;;;;18.57;76.31;101668.03;144992;601;6004;-80
2021/10/10 00:47:37;;;;;;;5.50;3.60;;;;;;;18.57;76.32;101663.66;144992;567;6004;-80
2021/10/10 00:50:05;;;;;;;5.47;3.20;;;;;;;18.58;76.52;101660.16;144992;611;6004;-79
2021/10/10 00:52:34;;;;;;;4.78;3.10;;;;;;;18.60;76.48;101660.19;144992;604;6004;-79
2021/10/10 00:55:02;;;;;;;3.53;2.72;;;;;;;18.60;76.15;101657.56;144992;615;6004;-79
2021/10/10 00:57:29;;;;;;;3.33;2.60;;;;;;;18.60;76.23;101654.94;144992;713;6004;-79
2021/10/10 00:59:58;;;;;;;4.97;2.50;;;;;;;18.60;76.49;101655.78;144992;568;6004;-78
2021/10/10 01:02:26;;;;;;;4.28;2.72;;;;;;;18.61;76.76;101660.19;144992;657;6004;-80
2021/10/10 01:04:52;;;;;;;3.47;2.28;;;;;;;18.61;76.52;101654.03;144992;567;6004;-80
2021/10/10 01:07:21;;;;;;;4.90;2.47;;;;;;;18.62;76.68;101645.28;144992;585;6004;-78
2021/10/10 01:09:48;;;;;;;2.53;2.30;;;;;;;18.63;76.71;101655.84;144992;579;6004;-79
2021/10/10 01:12:15;;;;;;;4.28;2.65;;;;;;;18.63;76.63;101649.69;144992;570;6004;-77
2021/10/10 01:14:41;;;;;;;3.67;2.50;;;;;;;18.63;77.10;101649.69;144992;563;6004;-79
2021/10/10 01:17:08;;;;;;;2.97;2.65;;;;;;;18.63;76.57;101641.81;144992;701;6004;-79
2021/10/10 01:19:36;;;;;;;3.58;2.80;;;;;;;18.62;77.01;101643.53;144992;594;6004;-78
2021/10/10 01:22:04;;;;;;;3.10;2.80;;;;;;;18.60;77.07;101637.37;144992;583;6004;-78
2021/10/10 01:24:30;;;;;;;2.90;2.60;;;;;;;18.59;77.28;101646.13;144992;599;6004;-79
2021/10/10 01:26:57;;;;;;;3.60;2.80;;;;;;;18.59;76.86;101632.09;144992;565;6004;-79
2021/10/10 01:29:24;;;;;;;2.95;2.70;;;;;;;18.59;77.20;101640.00;144992;606;6005;-78
2021/10/10 01:31:50;;;;;;;3.62;3.20;;;;;;;18.60;77.36;101636.50;144992;719;6004;-79
2021/10/10 01:34:16;;;;;;;3.22;2.78;;;;;;;18.61;77.42;101638.25;144992;602;6004;-79
2021/10/10 01:36:43;;;;;;;4.05;2.85;;;;;;;18.59;77.58;101638.25;144992;581;6005;-78
2021/10/10 01:39:09;;;;;;;2.90;2.55;;;;;;;18.60;77.10;101632.12;144992;584;6004;-79
2021/10/10 01:41:36;;;;;;;3.12;2.83;;;;;;;18.62;77.44;101638.28;144992;654;6004;-78
2021/10/10 01:44:03;;;;;;;4.18;2.80;;;;;;;18.56;77.20;101626.81;144992;608;6005;-79
2021/10/10 01:46:29;;;;;;;3.65;2.90;;;;;;;18.55;77.43;101625.03;144992;597;6004;-79
2021/10/10 01:48:56;;;;;;;4.55;3.28;;;;;;;18.53;77.59;101624.16;144992;597;6004;-79
2021/10/10 01:51:22;;;;;;;4.55;3.08;;;;;;;18.53;77.41;101619.75;144992;665;6004;-79
2021/10/10 01:53:49;;;;;;;4.60;3.12;;;;;;;18.54;77.97;101611.03;144992;604;6004;-78
2021/10/10 01:56:16;;;;;;;3.72;2.80;;;;;;;18.54;77.69;101611.03;144992;575;6004;-79
2021/10/10 01:58:43;;;;;;;4.15;3.28;;;;;;;18.55;77.93;101617.16;144992;639;6004;-78
2021/10/10 02:01:09;;;;;;;3.62;2.75;;;;;;;18.55;77.35;101611.91;144992;612;6004;-77
2021/10/10 02:03:36;;;;;;;3.42;2.95;;;;;;;18.52;77.84;101610.13;144992;632;6004;-77
2021/10/10 02:06:03;;;;;;;4.70;3.10;;;;;;;18.50;77.56;101609.25;144992;728;6004;-78
2021/10/10 02:08:29;;;;;;;4.57;3.08;;;;;;;18.48;77.62;101603.97;144992;590;6004;-77
2021/10/10 02:10:57;;;;;;;3.35;2.92;;;;;;;18.48;77.74;101608.31;144992;565;6004;-77
2021/10/10 02:13:24;;;;;;;3.62;2.85;;;;;;;18.48;77.88;101608.31;144992;611;6004;-80
2021/10/10 02:15:50;;;;;;;2.80;2.47;;;;;;;18.46;77.92;101605.69;144992;597;6004;-79
2021/10/10 02:18:17;;;;;;;3.55;2.67;;;;;;;18.46;77.96;101604.81;144992;721;6004;-78
2021/10/10 02:20:43;;;;;;;3.20;2.72;;;;;;;18.47;78.00;101596.06;144992;567;6004;-78
2021/10/10 02:23:13;;;;;;;3.22;2.65;;;;;;;18.44;77.90;101580.25;144992;588;6004;-78
2021/10/10 02:25:39;;;;;;;3.17;2.85;;;;;;;18.43;78.42;101584.59;144992;585;6004;-78
2021/10/10 02:28:06;;;;;;;3.20;2.60;;;;;;;18.43;78.34;101592.50;144992;607;6004;-78
2021/10/10 02:30:32;;;;;;;4.22;2.60;;;;;;;18.44;77.72;101590.78;144992;591;6004;-78
2021/10/10 02:32:59;;;;;;;4.43;2.80;;;;;;;18.44;77.89;101580.25;144992;568;6004;-79
2021/10/10 02:35:25;;;;;;;3.15;2.85;;;;;;;18.42;78.24;101582.87;144992;646;6004;-78
2021/10/10 02:37:52;;;;;;;3.97;3.30;;;;;;;18.42;78.08;101577.59;144992;623;6004;-78
2021/10/10 02:40:18;;;;;;;3.22;2.90;;;;;;;18.43;77.91;101583.75;144992;599;6004;-78
2021/10/10 02:42:45;;;;;;;3.50;2.80;;;;;;;18.44;78.05;101593.41;144992;603;6004;-78
2021/10/10 02:45:11;;;;;;;4.97;3.25;;;;;;;18.44;78.03;101594.28;144992;682;6004;-79
2021/10/10 02:47:39;;;;;;;4.90;2.60;;;;;;;18.41;78.09;101586.34;144992;601;6004;-79
2021/10/10 02:50:07;;;;;;;3.78;2.80;;;;;;;18.39;77.77;101577.56;144992;698;6004;-78
2021/10/10 02:52:34;;;;;;;3.30;2.62;;;;;;;18.38;78.37;101581.06;144992;610;6004;-78
2021/10/10 02:55:00;;;;;;;3.33;2.78;;;;;;;18.35;78.13;101575.75;144992;598;6004;-78
2021/10/10 02:57:27;;;;;;;3.78;2.80;;;;;;;18.38;78.00;101585.44;144992;593;6004;-78
2021/10/10 02:59:53;;;;;;;4.55;2.60;;;;;;;18.38;77.96;101578.41;144992;588;6004;-79
2021/10/10 03:02:20;;;;;;;4.30;2.87;;;;;;;18.39;78.21;101577.56;144992;598;6004;-79
2021/10/10 03:04:46;;;;;;;3.42;2.80;;;;;;;18.39;78.07;101584.56;144992;600;6004;-80
2021/10/10 03:07:12;;;;;;;4.93;3.05;;;;;;;18.38;77.96;101586.31;144992;657;6004;-79
2021/10/10 03:09:39;;;;;;;3.87;2.83;;;;;;;18.36;78.06;101582.78;144992;630;6004;-80
2021/10/10 03:12:06;;;;;;;4.97;3.58;;;;;;;18.38;78.46;101569.66;144992;605;6004;-78
2021/10/10 03:14:32;;;;;;;4.62;3.10;;;;;;;18.37;78.11;101560.88;144991;691;6008;-79
2021/10/10 03:16:59;;;;;;;3.95;2.80;;;;;;;18.38;78.12;101567.03;144992;705;6002;-79
2021/10/10 03:19:25;;;;;;;3.75;3.05;;;;;;;18.37;77.73;101567.91;144992;594;6002;-79
2021/10/10 03:21:53;;;;;;;3.92;3.30;;;;;;;18.38;78.29;101570.53;144992;605;6002;-79
2021/10/10 03:24:20;;;;;;;11.68;4.05;;;;;;;18.39;77.85;101564.44;144992;571;6002;-79
2021/10/10 03:26:46;;;;;;;3.58;3.28;;;;;;;18.39;78.25;101555.63;144992;652;6002;-77
2021/10/10 03:29:12;;;;;;;3.35;3.03;;;;;;;18.40;78.13;101557.41;144992;615;6002;-78
2021/10/10 03:31:39;;;;;;;3.47;3.17;;;;;;;18.39;77.87;101546.03;144992;671;6002;-79
2021/10/10 03:34:05;;;;;;;4.82;3.03;;;;;;;18.41;78.16;101543.41;144992;589;6002;-78
2021/10/10 03:36:32;;;;;;;4.05;3.20;;;;;;;18.41;78.64;101543.41;144992;582;6002;-79
2021/10/10 03:38:58;;;;;;;3.55;3.10;;;;;;;18.41;77.74;101544.28;144992;623;6002;-78
2021/10/10 03:41:25;;;;;;;4.18;3.42;;;;;;;18.42;78.64;101548.69;144991;599;6002;-78
2021/10/10 03:43:52;;;;;;;3.72;3.33;;;;;;;18.42;78.33;101543.44;144992;609;6002;-79
2021/10/10 03:46:19;;;;;;;5.50;3.60;;;;;;;18.41;78.40;101543.41;144992;571;6002;-79
2021/10/10 03:48:45;;;;;;;3.62;3.10;;;;;;;18.40;78.27;101537.25;144992;625;6002;-78
2021/10/10 03:51:12;;;;;;;4.32;3.70;;;;;;;18.41;78.21;101535.53;144992;609;6003;-79
2021/10/10 03:54:16;;;;;;;3.70;3.40;;;;;;;18.42;78.54;101534.66;144992;569;6002;-78
2021/10/10 03:56:28;;;;;;;4.57;3.80;;;;;;;18.42;78.40;101535.53;144992;613;6004;-78
2021/10/10 03:58:56;;;;;;;4.40;3.50;;;;;;;18.41;78.24;101528.50;144992;562;6004;-78
2021/10/10 04:01:25;;;;;;;9.23;4.00;;;;;;;18.43;78.44;101531.16;144993;594;6000;-78
2021/10/10 04:03:51;;;;;;;5.50;4.32;;;;;;;18.44;78.79;101525.06;144993;577;6002;-78
2021/10/10 04:06:18;;;;;;;4.35;3.95;;;;;;;18.42;78.58;101526.75;144993;578;6002;-78
2021/10/10 04:08:44;;;;;;;4.15;3.75;;;;;;;18.42;78.58;101540.81;144993;573;6002;-79
2021/10/10 04:11:11;;;;;;;4.25;3.85;;;;;;;18.43;78.55;101525.91;144992;622;6002;-80
2021/10/10 04:13:38;;;;;;;4.62;3.50;;;;;;;18.43;78.49;101529.41;144993;591;6002;-79
2021/10/10 04:16:05;;;;;;;4.82;3.78;;;;;;;18.42;78.59;101530.28;144993;564;6002;-77
2021/10/10 04:18:33;;;;;;;4.05;3.62;;;;;;;18.42;78.77;101526.75;144993;659;6002;-79
2021/10/10 04:21:00;;;;;;;6.35;5.05;;;;;;;18.41;78.50;101522.38;144993;587;6002;-79
2021/10/10 04:23:26;;;;;;;7.43;5.43;;;;;;;18.40;78.55;101518.84;144993;608;6002;-80
2021/10/10 04:25:52;;;;;;;7.30;6.00;;;;;;;18.40;78.67;101524.09;144993;579;6002;-79
2021/10/10 04:28:19;;;;;;;6.65;5.32;;;;;;;18.38;79.02;101517.97;144993;569;6002;-78
2021/10/10 04:30:45;;;;;;;7.32;5.50;;;;;;;18.38;78.48;101519.72;144993;602;6002;-78
2021/10/10 04:33:12;;;;;;;7.22;4.85;;;;;;;18.38;78.80;101504.81;144993;592;6002;-79
2021/10/10 04:35:38;;;;;;;5.90;4.45;;;;;;;18.39;78.59;101498.72;144992;600;6002;-79
2021/10/10 04:38:05;;;;;;;7.68;4.05;;;;;;;18.40;78.77;101497.81;144992;579;6002;-78
2021/10/10 04:40:31;;;;;;;6.00;4.43;;;;;;;18.39;78.55;101501.34;144992;579;6002;-79
2021/10/10 04:42:59;;;;;;;5.95;4.40;;;;;;;18.39;78.83;101497.81;144992;593;6002;-78
2021/10/10 04:45:25;;;;;;;6.00;4.20;;;;;;;18.37;78.91;101500.41;144992;580;6002;-78
2021/10/10 04:47:52;;;;;;;6.50;4.32;;;;;;;18.38;78.43;101503.94;144993;582;6002;-77
2021/10/10 04:50:18;;;;;;;8.40;4.55;;;;;;;18.39;79.03;101517.12;144993;565;6003;-78
2021/10/10 04:52:45;;;;;;;6.10;4.30;;;;;;;18.38;78.61;101522.34;144993;569;6002;-78
2021/10/10 04:55:11;;;;;;;5.72;3.67;;;;;;;18.37;78.61;101524.06;144993;610;6002;-78
2021/10/10 04:57:38;;;;;;;6.18;3.72;;;;;;;18.38;78.44;101522.34;144993;655;6003;-78
2021/10/10 05:00:05;;;;;;;7.45;3.80;;;;;;;18.38;78.73;101531.09;144993;600;6002;-78
2021/10/10 05:02:31;;;;;;;7.20;3.50;;;;;;;18.39;79.02;101537.25;144993;614;6002;-78
2021/10/10 05:04:58;;;;;;;6.85;3.60;;;;;;;18.40;79.04;101552.16;144993;572;6002;-78
2021/10/10 05:07:24;;;;;;;9.32;3.70;;;;;;;18.39;79.00;101548.66;144993;575;6002;-78
2021/10/10 05:09:51;;;;;;;4.60;3.58;;;;;;;18.40;78.66;101541.63;144993;622;6002;-79
2021/10/10 05:12:17;;;;;;;5.22;3.70;;;;;;;18.41;78.78;101540.78;144993;604;6002;-79
2021/10/10 05:14:44;;;;;;;5.57;4.10;;;;;;;18.41;78.43;101544.28;144993;589;6002;-79
2021/10/10 05:17:11;;;;;;;5.50;3.80;;;;;;;18.43;78.29;101544.31;144993;599;6002;-77
2021/10/10 05:19:37;;;;;;;6.45;3.65;;;;;;;18.43;78.49;101542.53;144992;602;6002;-79
2021/10/10 05:22:04;;;;;;;8.00;4.53;;;;;;;18.44;78.80;101549.56;144993;608;6002;-78
2021/10/10 05:24:31;;;;;;;5.37;3.72;;;;;;;18.45;78.38;101543.47;144993;590;6002;-79
2021/10/10 05:26:59;;;;;;;5.43;4.50;;;;;;;18.47;78.81;101546.97;144993;568;6002;-78
2021/10/10 05:29:25;;;;;;;5.40;4.20;;;;;;;18.49;78.89;101552.25;144993;566;6002;-79
2021/10/10 05:31:52;;;;;;;4.80;4.15;;;;;;;18.53;78.55;101558.41;144993;620;6002;-79
2021/10/10 05:34:18;;;;;;;5.50;4.43;;;;;;;18.55;78.75;101554.97;144993;564;6002;-77
2021/10/10 05:36:45;;;;;;;5.47;4.80;;;;;;;18.59;78.40;101555.84;144993;693;6002;-78
2021/10/10 05:39:11;;;;;;;5.10;4.60;;;;;;;18.62;78.58;101553.25;144993;593;6002;-77
2021/10/10 05:41:37;;;;;;;5.72;4.93;;;;;;;18.65;78.70;101556.78;144992;577;6002;-79
2021/10/10 05:44:04;;;;;;;6.43;4.60;;;;;;;18.72;78.38;101548.97;144994;584;5002;-79
2021/10/10 05:46:30;;;;;;;5.47;4.07;;;;;;;18.75;78.97;101549.88;144994;593;5002;-79
2021/10/10 05:48:57;;;;;;;4.35;3.95;;;;;;;18.80;78.21;101553.44;144994;648;5002;-79
2021/10/10 05:51:23;;;;;;;4.90;4.28;;;;;;;18.88;78.36;101550.88;144994;629;5002;-79
2021/10/10 05:53:50;;;;;;;4.43;3.83;;;;;;;18.93;78.49;101554.47;144994;605;5002;-79
2021/10/10 05:56:17;;;;;;;4.72;4.32;;;;;;;18.97;78.16;101552.72;144994;692;5002;-79
2021/10/10 05:58:45;;;;;;;4.43;3.92;;;;;;;19.04;78.32;101546.63;144994;603;5002;-79
2021/10/10 06:01:14;;;;;;;4.07;3.75;;;;;;;19.10;78.22;101535.28;144994;587;5002;-79
2021/10/10 06:03:40;;;;;;;4.97;3.60;;;;;;;19.13;78.78;101533.56;144994;646;5002;-77
2021/10/10 06:06:07;;;;;;;5.43;3.95;;;;;;;19.17;78.62;101537.12;144994;662;5002;-78
2021/10/10 06:08:33;;;;;;;4.35;3.95;;;;;;;19.17;78.55;101542.37;144994;659;5002;-78
2021/10/10 06:11:00;;;;;;;4.75;3.70;;;;;;;19.18;78.39;101542.37;144994;668;5002;-78
2021/10/10 06:13:26;;;;;;;4.10;3.70;;;;;;;19.19;78.17;101541.50;144994;645;5002;-79
2021/10/10 06:15:54;;;;;;;3.85;3.53;;;;;;;19.20;78.45;101545.91;144994;688;5002;-79
2021/10/10 06:18:22;;;;;;;4.12;3.62;;;;;;;19.21;78.36;101541.50;144994;577;5002;-80
2021/10/10 06:20:48;;;;;;;5.60;5.05;;;;;;;19.21;78.62;101550.28;144994;629;5002;-78
2021/10/10 06:23:15;;;;;;;5.20;4.65;;;;;;;19.19;78.41;101545.91;144994;622;5002;-79
2021/10/10 06:25:41;;;;;;;5.07;4.12;;;;;;;19.17;78.17;101543.25;144994;576;5002;-79
2021/10/10 06:28:07;;;;;;;5.45;4.72;;;;;;;19.19;78.59;101540.62;144993;669;5002;-79
2021/10/10 06:30:34;;;;;;;5.20;4.70;;;;;;;19.19;78.47;101544.12;144994;606;5002;-79
2021/10/10 06:33:00;;;;;;;5.10;4.40;;;;;;;19.21;77.99;101536.25;144994;637;5013;-79
2021/10/10 06:35:27;;;;;;;5.20;4.53;;;;;;;19.23;78.04;101541.53;144994;564;5002;-78
2021/10/10 06:37:53;;;;;;;4.62;4.20;;;;;;;19.22;78.60;101545.91;144994;638;5002;-78
2021/10/10 06:40:20;;;;;;;7.53;4.05;;;;;;;19.23;78.03;101549.41;144994;621;5002;-79
2021/10/10 06:42:47;;;;;;;5.50;3.58;;;;;;;19.27;78.66;101559.13;144994;661;5002;-79
2021/10/10 06:45:13;;;;;;;8.52;3.72;;;;;;;19.24;78.03;101566.97;144994;695;5002;-79
2021/10/10 06:47:40;;;;;;;4.62;3.30;;;;;;;19.20;77.99;101581.84;144994;579;5002;-78
2021/10/10 06:50:07;;;;;;;5.22;3.08;;;;;;;19.20;77.99;101576.59;144994;679;5002;-79
2021/10/10 06:52:34;;;;;;;4.03;2.78;;;;;;;19.21;78.19;101576.59;144994;665;5002;-78
2021/10/10 06:55:00;;;;;;;4.65;2.80;;;;;;;19.26;78.63;101588.94;144994;614;5002;-79
2021/10/10 06:57:29;;;;;;;4.78;2.95;;;;;;;19.26;78.15;101597.69;144994;631;5002;-79
2021/10/10 06:59:58;;;;;;;3.03;2.70;;;;;;;19.29;78.71;101599.47;144994;593;5002;-79
2021/10/10 07:02:30;;;;;;;4.62;2.95;;;;;;;19.32;78.44;101595.13;144994;651;5002;-79
2021/10/10 07:04:57;;;;;;;5.93;2.92;;;;;;;19.37;77.98;101603.03;144994;661;5002;-79
2021/10/10 07:07:24;;;;;;;5.78;3.00;;;;;;;19.40;78.63;101608.34;144994;609;5002;-78
2021/10/10 07:09:51;;;;;;;6.30;2.83;;;;;;;19.44;78.32;101610.13;144994;654;5002;-79
2021/10/10 07:12:17;;;;;;;5.53;2.95;;;;;;;19.47;78.55;101607.53;144994;591;5002;-79
2021/10/10 07:14:46;;;;;;;5.50;3.00;;;;;;;19.50;78.24;101604.91;144994;600;5002;-79
2021/10/10 07:17:14;;;;;;;4.80;3.10;;;;;;;19.44;78.41;101596.97;144994;647;5002;-79
2021/10/10 07:19:48;;;;;;;4.03;3.20;;;;;;;19.42;78.41;101595.19;144994;566;5002;-79
2021/10/10 07:22:26;;;;;;;5.18;2.95;;;;;;;19.40;78.44;101603.06;144994;592;5002;-79
2021/10/10 07:25:05;;;;;;;3.58;3.25;;;;;;;19.41;78.04;101596.94;144994;693;5002;-79
2021/10/10 07:27:38;;;;;;;3.75;2.92;;;;;;;19.43;78.33;101603.09;144994;569;5002;-78
2021/10/10 07:30:06;;;;;;;5.43;3.70;;;;;;;19.45;78.55;101600.47;144994;641;5002;-79
2021/10/10 07:32:33;;;;;;;4.32;3.17;;;;;;;19.44;78.68;101602.25;144994;588;5002;-79
2021/10/10 07:35:01;;;;;;;4.03;3.30;;;;;;;19.47;78.79;101607.53;144994;577;5002;-78
2021/10/10 07:37:27;;;;;;;3.92;3.58;;;;;;;19.50;78.83;101612.81;144994;609;5002;-76
2021/10/10 07:39:56;;;;;;;7.60;3.58;;;;;;;19.51;78.35;101622.47;144994;586;5002;-83
2021/10/10 07:42:22;;;;;;;4.35;3.55;;;;;;;19.47;78.44;101618.06;144994;650;5002;-78
2021/10/10 07:44:51;;;;;;;6.05;3.67;;;;;;;19.48;78.53;101626.81;144994;673;5002;-80
2021/10/10 07:47:34;;;;;;;4.03;3.22;;;;;;;19.47;78.61;101620.69;144994;665;5002;-78
2021/10/10 07:50:01;;;;;;;5.00;3.10;;;;;;;19.49;78.34;101608.41;144994;571;5002;-78
2021/10/10 07:52:28;;;;;;;8.10;3.62;;;;;;;19.51;78.09;101608.41;144994;618;5002;-79
2021/10/10 07:54:54;;;;;;;5.50;3.08;;;;;;;19.51;78.19;101611.94;144994;575;5002;-78
2021/10/10 07:57:21;;;;;;;7.78;3.85;;;;;;;19.55;78.19;101608.47;144994;572;5002;-79
2021/10/10 07:59:47;;;;;;;5.80;3.28;;;;;;;19.56;78.41;101602.28;144994;596;5002;-77
2021/10/10 08:02:14;;;;;;;8.23;3.85;;;;;;;19.57;78.85;101604.06;144994;569;5002;-78
2021/10/10 08:04:41;;;;;;;8.10;3.67;;;;;;;19.60;78.06;101599.69;144994;672;5002;-79
2021/10/10 08:07:07;;;;;;;4.90;3.30;;;;;;;19.60;78.21;101603.22;144994;597;5002;-80
2021/10/10 08:09:37;;;;;;;4.62;3.08;;;;;;;19.62;77.87;101597.97;144994;575;5002;-76
2021/10/10 08:12:04;;;;;;;8.38;2.90;;;;;;;19.61;78.64;101614.62;144994;578;5002;-79
2021/10/10 08:14:30;;;;;;;6.47;3.30;;;;;;;19.58;78.02;101623.37;144994;650;5002;-76
2021/10/10 08:16:57;;;;;;;6.97;3.70;;;;;;;19.55;78.21;101615.44;144994;626;5002;-78
2021/10/10 08:19:23;;;;;;;5.97;3.42;;;;;;;19.49;78.53;101613.69;144994;564;5002;-80
2021/10/10 08:21:50;;;;;;;10.65;3.70;;;;;;;19.45;78.52;101616.28;144994;593;5002;-78
2021/10/10 08:24:18;;;;;;;8.77;3.87;;;;;;;19.37;78.62;101608.31;144994;570;5002;-79
2021/10/10 08:26:47;;;;;;;6.50;4.28;;;;;;;19.34;78.30;101614.47;144994;580;5002;-80
2021/10/10 08:29:14;;;;;;;6.35;3.70;;;;;;;19.32;78.48;101615.31;144994;591;5002;-80
2021/10/10 08:31:41;;;;;;;7.75;4.47;;;;;;;19.32;78.23;101607.41;144994;627;5002;-78
2021/10/10 08:34:08;;;;;;;6.43;4.45;;;;;;;19.34;78.14;101621.44;144994;569;5002;-80
2021/10/10 08:36:34;;;;;;;7.45;4.47;;;;;;;19.31;78.40;101613.53;144994;576;5002;-77
2021/10/10 08:39:01;;;;;;;8.75;4.15;;;;;;;19.27;78.75;101611.75;144994;574;5002;-80
2021/10/10 08:41:33;;;;;;;5.40;3.62;;;;;;;19.23;78.39;101616.09;144994;646;5002;-78
2021/10/10 08:44:04;;;;;;;6.57;4.30;;;;;;;19.20;79.04;101614.34;144994;632;5002;-80
2021/10/10 08:46:34;;;;;;;6.43;4.12;;;;;;;19.22;78.40;101611.72;144994;633;5002;-78
2021/10/10 08:49:01;;;;;;;7.32;4.75;;;;;;;19.25;79.06;101608.22;144994;620;5002;-80
2021/10/10 08:51:34;;;;;;;7.57;5.35;;;;;;;19.29;78.50;101613.50;144994;586;5002;-78
2021/10/10 08:54:01;;;;;;;8.98;5.50;;;;;;;19.30;78.70;101611.78;144994;563;5002;-78
2021/10/10 08:56:28;;;;;;;6.20;4.80;;;;;;;19.34;78.59;101611.81;144994;654;5002;-79
2021/10/10 08:58:56;;;;;;;6.00;5.40;;;;;;;19.38;78.41;101604.81;144994;609;5002;-78
2021/10/10 09:01:31;;;;;;;9.30;5.37;;;;;;;19.44;78.34;101603.97;144994;569;5002;-80
2021/10/10 09:03:58;;;;;;;8.25;5.97;;;;;;;19.48;78.66;101596.09;144994;603;5002;-77
2021/10/10 09:06:25;;;;;;;8.88;5.62;;;;;;;19.53;78.05;101594.38;144994;575;5002;-78
2021/10/10 09:08:54;;;;;;;7.25;5.72;;;;;;;19.57;78.03;101596.16;144994;585;5002;-77
2021/10/10 09:11:21;;;;;;;8.50;5.37;;;;;;;19.61;78.28;101590.94;144994;604;5002;-76
2021/10/10 09:14:01;;;;;;;7.37;5.62;;;;;;;19.68;78.57;101595.38;144994;569;5002;-79
2021/10/10 09:16:34;;;;;;;7.22;5.85;;;;;;;19.79;78.53;101590.19;144994;633;5002;-78
2021/10/10 09:19:30;;;;;;;13.00;6.20;;;;;;;19.91;78.34;101582.34;144994;581;5002;-79
2021/10/10 09:22:06;;;;;;;8.90;5.50;;;;;;;20.03;77.79;101585.03;144994;571;5004;-78
2021/10/10 09:24:35;;;;;;;7.22;5.82;;;;;;;20.18;77.81;101584.22;144994;561;5004;-77
2021/10/10 09:27:22;;;;;;;6.10;5.32;;;;;;;20.32;77.64;101567.59;144994;631;5004;-78
2021/10/10 09:29:51;;;;;;;5.95;4.95;;;;;;;20.46;78.50;101566.72;144994;585;5004;-79
2021/10/10 09:32:21;;;;;;;6.35;4.82;;;;;;;20.62;77.82;101561.50;144994;644;5004;-77
2021/10/10 09:34:50;;;;;;;6.18;5.05;;;;;;;20.78;78.16;101549.22;144994;624;5004;-77
2021/10/10 09:37:32;;;;;;;6.40;5.40;;;;;;;20.98;77.57;101543.94;144994;583;5004;-79
2021/10/10 09:40:03;;;;;;;7.37;6.20;;;;;;;21.24;77.59;101550.97;144994;573;5004;-79
2021/10/10 09:42:43;;;;;;;5.93;5.43;;;;;;;21.42;77.27;101556.22;144994;668;5004;-78
2021/10/10 09:45:21;;;;;;;5.87;4.93;;;;;;;21.52;77.10;101565.03;144994;589;5004;-79
2021/10/10 09:48:03;;;;;;;5.40;4.90;;;;;;;21.53;77.07;101561.53;144994;612;5004;-78
2021/10/10 09:50:35;;;;;;;7.18;5.18;;;;;;;21.56;77.56;101566.81;144994;567;5004;-78
2021/10/10 09:53:09;;;;;;;6.57;5.35;;;;;;;21.61;77.19;101566.78;144994;575;5004;-77
2021/10/10 09:55:37;;;;;;;;;;;;;;;21.66;77.51;101565.87;144998;910;5004;-78
2021/10/10 09:58:04;;;;;;;5.57;4.80;;;;;;;21.70;77.46;101562.34;144998;611;5000;-77
2021/10/10 10:00:37;;;;;;;5.97;5.32;;;;;;;21.73;77.07;101549.13;144994;622;5004;-76
2021/10/10 10:03:09;;;;;;;5.97;5.10;;;;;;;21.74;76.98;101542.94;144994;627;5004;-78
2021/10/10 10:05:36;;;;;;;7.10;5.43;;;;;;;21.75;77.20;101538.56;144994;589;5004;-78
2021/10/10 10:08:03;;;;;;;7.32;5.93;;;;;;;21.77;77.34;101536.78;144994;567;5004;-76
2021/10/10 10:10:31;;;;;;;6.57;5.50;;;;;;;21.78;77.22;101540.28;144994;603;5000;-77
2021/10/10 10:13:00;;;;;;;7.10;6.12;;;;;;;21.74;77.30;101540.31;144994;595;5004;-78
2021/10/10 10:15:31;;;;;;;5.45;4.75;;;;;;;21.74;76.97;101542.94;144994;578;5004;-77
2021/10/10 10:17:58;;;;;;;4.50;4.10;;;;;;;21.73;76.83;101538.56;144994;580;4569;-78
2021/10/10 10:20:26;;;;;;;5.32;4.82;;;;;;;21.69;76.95;101546.50;144994;618;4574;-76
2021/10/10 10:22:55;;;;;;;7.85;4.80;;;;;;;21.68;77.09;101545.63;144994;564;4576;-78
2021/10/10 10:25:23;;;;;;;5.03;4.10;;;;;;;21.71;77.09;101536.81;144992;602;6005;-77
2021/10/10 10:27:52;;;;;;;4.85;4.37;;;;;;;21.71;76.91;101543.00;144992;595;6004;-78
2021/10/10 10:30:20;;;;;;;6.12;4.68;;;;;;;21.72;77.42;101550.00;144992;628;6004;-76
2021/10/10 10:32:47;;;;;;;5.72;4.55;;;;;;;21.74;77.24;101553.50;144992;591;6005;-76
2021/10/10 10:35:21;;;;;;;6.40;5.80;;;;;;;21.65;77.32;101558.84;144992;598;6008;-75
2021/10/10 10:37:49;;;;;;;9.18;6.35;;;;;;;21.62;77.22;101552.69;144992;670;6004;-78
2021/10/10 10:40:36;;;;;;;5.53;4.93;;;;;;;21.63;77.26;101555.31;144992;605;6004;-76
2021/10/10 10:43:05;;;;;;;5.47;4.30;;;;;;;21.67;77.23;101548.28;144992;587;6002;-78
2021/10/10 10:45:45;;;;;;;5.45;4.75;;;;;;;21.71;76.83;101544.72;144992;585;6002;-75
2021/10/10 10:48:51;;;;;;;5.07;4.10;;;;;;;21.76;77.11;101545.59;144992;596;6002;-76
2021/10/10 10:51:23;;;;;;;4.57;4.15;;;;;;;21.78;76.86;101550.88;144992;609;6004;-76
2021/10/10 10:53:51;;;;;;;4.78;4.15;;;;;;;21.81;76.86;101538.53;144992;607;6004;-74
2021/10/10 10:56:33;;;;;;;4.65;4.12;;;;;;;21.86;76.99;101543.81;144991;576;6000;-75
2021/10/10 10:58:59;;;;;;;5.03;4.53;;;;;;;21.90;76.81;101538.50;144992;579;6002;-77
2021/10/10 11:01:27;;;;;;;5.45;4.87;;;;;;;21.98;76.61;101540.22;144992;655;6002;-77
2021/10/10 11:04:26;;;;;;;5.12;4.30;;;;;;;21.95;73.54;101546.41;144992;630;6002;-77
2021/10/10 11:06:59;;;;;;;5.32;3.72;;;;;;;21.99;75.75;101539.34;144992;587;6004;-76
2021/10/10 11:09:26;;;;;;;7.65;6.05;;;;;;;21.93;76.15;101534.97;144992;622;6004;-76
2021/10/10 11:11:57;;;;;;;5.97;5.07;;;;;;;21.95;76.10;101529.66;144992;602;6004;-78
2021/10/10 11:14:29;;;;;;;5.80;5.25;;;;;;;22.02;75.85;101534.91;144992;597;6004;-75
2021/10/10 11:17:17;;;;;;;7.22;5.00;;;;;;;22.10;75.75;101538.41;144992;573;6005;-77
2021/10/10 11:19:44;;;;;;;6.32;5.43;;;;;;;22.16;76.04;101537.50;144992;574;6002;-76
2021/10/10 11:22:11;;;;;;;4.07;3.62;;;;;;;22.21;75.71;101526.91;144992;586;6002;-77
2021/10/10 11:24:37;;;;;;;5.15;4.05;;;;;;;22.19;75.42;101516.34;144992;571;6002;-76
2021/10/10 11:27:11;;;;;;;6.10;3.80;;;;;;;22.20;75.50;101515.44;144992;673;6002;-77
2021/10/10 11:29:38;;;;;;;4.93;4.12;;;;;;;22.23;75.15;101511.91;144992;563;6002;-74
2021/10/10 11:32:05;;;;;;;5.05;4.12;;;;;;;22.31;75.17;101507.47;144992;570;6003;-76
2021/10/10 11:34:31;;;;;;;7.87;4.22;;;;;;;22.46;75.09;101503.81;144992;571;6002;-76
2021/10/10 11:36:59;;;;;;;5.85;3.87;;;;;;;22.65;74.68;101515.16;144992;582;6002;-76
2021/10/10 11:39:28;;;;;;;5.00;4.03;;;;;;;22.85;74.35;101509.72;144992;600;6003;-74